createdAt,value
2023-05-13T00:00:06.337Z,19.58
2023-05-13T00:02:38.516Z,32.22
2023-05-13T00:05:10.719Z,21.75
2023-05-13T00:07:42.925Z,21.13
2023-05-13T00:10:16.701Z,24.90
2023-05-13T00:12:49.482Z,25.60
2023-05-13T00:15:21.865Z,24.13
2023-05-13T00:17:54.482Z,25.98
2023-05-13T00:20:26.944Z,22.47
2023-05-13T00:22:59.100Z,24.38
2023-05-13T00:25:31.290Z,23.63
2023-05-13T00:28:03.619Z,26.60
2023-05-13T00:30:35.806Z,24.85
2023-05-13T00:33:08.361Z,29.90
2023-05-13T00:35:40.911Z,26.38
2023-05-13T00:40:47.171Z,27.70
2023-05-13T00:43:19.368Z,29.33
2023-05-13T00:45:51.824Z,27.08
2023-05-13T00:48:24.855Z,24.75
2023-05-13T00:50:57.117Z,29.08
2023-05-13T00:53:30.810Z,31.80
2023-05-13T00:56:04.133Z,28.30
2023-05-13T00:58:36.318Z,33.33
2023-05-13T01:01:26.760Z,32.80
2023-05-13T01:04:42.932Z,30.65
2023-05-13T01:07:34.420Z,35.78
2023-05-13T01:10:28.886Z,33.95
2023-05-13T01:13:07.832Z,32.38
2023-05-13T01:15:45.829Z,30.95
2023-05-13T01:18:28.500Z,37.92
2023-05-13T01:21:04.055Z,34.83
2023-05-13T01:23:36.449Z,39.95
2023-05-13T01:26:09.073Z,40.03
2023-05-13T01:28:41.614Z,39.45
2023-05-13T01:31:14.953Z,44.33
2023-05-13T01:33:47.798Z,37.95
2023-05-13T01:36:20.937Z,40.45
2023-05-13T01:38:55.863Z,40.47
2023-05-13T01:41:28.098Z,39.78
2023-05-13T01:44:00.479Z,36.85
2023-05-13T01:46:33.715Z,38.70
2023-05-13T01:49:08.026Z,39.30
2023-05-13T01:51:41.603Z,39.65
2023-05-13T01:54:13.777Z,40.10
2023-05-13T01:56:53.188Z,44.83
2023-05-13T01:59:26.387Z,36.72
2023-05-13T02:01:58.899Z,44.35
2023-05-13T02:04:32.356Z,44.00
2023-05-13T02:07:06.016Z,43.80
2023-05-13T02:09:38.574Z,39.75
2023-05-13T02:12:12.172Z,46.20
2023-05-13T02:14:44.578Z,41.73
2023-05-13T02:17:16.704Z,45.85
2023-05-13T02:19:48.949Z,39.08
2023-05-13T02:22:21.191Z,44.80
2023-05-13T02:24:53.936Z,47.42
2023-05-13T02:27:26.503Z,42.03
2023-05-13T02:29:59.455Z,47.03
2023-05-13T02:32:31.830Z,48.17
2023-05-13T02:35:04.225Z,49.55
2023-05-13T02:37:37.080Z,49.30
2023-05-13T02:42:43.995Z,53.15
2023-05-13T02:45:17.705Z,52.30
2023-05-13T02:47:55.118Z,50.95
2023-05-13T02:50:27.560Z,53.38
2023-05-13T02:53:01.369Z,59.60
2023-05-13T02:55:33.934Z,47.08
2023-05-13T02:58:06.184Z,59.97
2023-05-13T03:00:39.174Z,56.85
2023-05-13T03:03:11.511Z,59.03
2023-05-13T03:05:43.734Z,49.92
2023-05-13T03:08:16.621Z,52.22
2023-05-13T03:10:49.026Z,50.22
2023-05-13T03:13:21.303Z,51.95
2023-05-13T03:15:53.691Z,49.97
2023-05-13T03:18:26.169Z,58.83
2023-05-13T03:20:58.955Z,52.92
2023-05-13T03:23:33.915Z,50.28
2023-05-13T03:26:07.966Z,52.17
2023-05-13T03:28:40.661Z,53.97
2023-05-13T03:31:13.325Z,59.08
2023-05-13T03:33:45.666Z,48.85
2023-05-13T03:36:18.834Z,48.75
2023-05-13T03:38:51.218Z,45.60
2023-05-13T03:41:23.807Z,55.05
2023-05-13T03:43:56.621Z,50.33
2023-05-13T03:46:29.847Z,49.33
2023-05-13T03:49:02.245Z,48.00
2023-05-13T03:51:35.509Z,51.33
2023-05-13T03:54:08.106Z,49.78
2023-05-13T03:56:40.581Z,46.08
2023-05-13T03:59:12.865Z,48.35
2023-05-13T04:01:45.377Z,49.20
2023-05-13T04:04:17.711Z,52.90
2023-05-13T04:06:50.444Z,47.00
2023-05-13T04:09:22.681Z,52.38
2023-05-13T04:11:55.481Z,56.35
2023-05-13T04:14:28.480Z,57.22
2023-05-13T04:17:00.844Z,55.30
2023-05-13T04:19:33.073Z,57.97
2023-05-13T04:22:05.339Z,59.92
2023-05-13T04:24:37.553Z,50.50
2023-05-13T04:27:09.768Z,51.03
2023-05-13T04:29:43.380Z,50.65
2023-05-13T04:32:21.582Z,48.83
2023-05-13T04:34:56.056Z,54.42
2023-05-13T04:37:30.681Z,56.70
2023-05-13T04:40:08.317Z,64.07
2023-05-13T04:42:41.257Z,53.47
2023-05-13T04:45:13.517Z,45.63
2023-05-13T04:50:21.278Z,54.40
2023-05-13T04:52:56.656Z,53.58
2023-05-13T04:55:29.060Z,50.88
2023-05-13T04:58:02.360Z,54.40
2023-05-13T05:00:35.013Z,51.05
2023-05-13T05:03:07.274Z,57.55
2023-05-13T05:05:40.051Z,55.42
2023-05-13T05:10:46.266Z,52.47
2023-05-13T05:13:19.570Z,50.35
2023-05-13T05:15:52.483Z,58.03
2023-05-13T05:18:24.931Z,61.65
2023-05-13T05:20:58.852Z,59.47
2023-05-13T05:23:32.303Z,47.35
2023-05-13T05:26:11.587Z,51.63
2023-05-13T05:28:45.714Z,55.80
2023-05-13T05:31:18.755Z,53.17
2023-05-13T05:33:53.638Z,57.92
2023-05-13T05:36:25.962Z,54.35
2023-05-13T05:38:58.149Z,53.00
2023-05-13T05:41:39.118Z,53.45
2023-05-13T05:44:13.653Z,58.72
2023-05-13T05:46:46.662Z,58.17
2023-05-13T05:49:19.117Z,56.75
2023-05-13T05:51:51.570Z,58.33
2023-05-13T05:56:57.254Z,54.28
2023-05-13T05:59:30.173Z,54.80
2023-05-13T06:02:02.413Z,55.40
2023-05-13T06:04:35.414Z,51.17
2023-05-13T06:07:09.794Z,52.63
2023-05-13T06:09:42.066Z,52.35
2023-05-13T06:12:14.316Z,53.05
2023-05-13T06:14:46.732Z,55.95
2023-05-13T06:17:19.423Z,53.92
2023-05-13T06:19:51.851Z,50.70
2023-05-13T06:22:24.578Z,50.08
2023-05-13T06:24:57.790Z,49.58
2023-05-13T06:27:30.028Z,53.42
2023-05-13T06:30:02.255Z,51.90
2023-05-13T06:32:34.948Z,52.97
2023-05-13T06:35:07.893Z,52.85
2023-05-13T06:37:41.718Z,54.75
2023-05-13T06:40:14.598Z,46.45
2023-05-13T06:42:48.832Z,48.78
2023-05-13T06:45:26.922Z,53.72
2023-05-13T06:47:59.660Z,48.08
2023-05-13T06:50:32.143Z,49.33
2023-05-13T06:53:04.698Z,50.88
2023-05-13T06:55:42.055Z,55.92
2023-05-13T06:58:14.464Z,51.17
2023-05-13T07:00:47.298Z,53.40
2023-05-13T07:03:20.274Z,50.00
2023-05-13T07:05:52.464Z,55.45
2023-05-13T07:08:24.884Z,47.28
2023-05-13T07:10:57.329Z,47.17
2023-05-13T07:13:33.610Z,45.95
2023-05-13T07:16:06.006Z,43.70
2023-05-13T07:18:39.572Z,41.15
2023-05-13T07:21:11.889Z,49.77
2023-05-13T07:23:44.740Z,49.20
2023-05-13T07:26:17.302Z,52.03
2023-05-13T07:28:49.556Z,47.67
2023-05-13T07:31:21.936Z,47.55
2023-05-13T07:33:55.007Z,47.55
2023-05-13T07:36:28.254Z,41.80
2023-05-13T07:39:02.333Z,50.08
2023-05-13T07:41:37.420Z,41.63
2023-05-13T07:44:14.084Z,44.38
2023-05-13T07:46:46.575Z,48.28
2023-05-13T07:49:21.956Z,45.13
2023-05-13T07:51:54.527Z,40.90
2023-05-13T07:54:27.295Z,39.80
2023-05-13T07:56:59.611Z,39.03
2023-05-13T07:59:32.177Z,42.13
2023-05-13T08:02:04.501Z,38.00
2023-05-13T08:04:36.929Z,41.90
2023-05-13T08:07:11.614Z,40.50
2023-05-13T08:09:43.838Z,38.88
2023-05-13T08:12:18.382Z,39.30
2023-05-13T08:14:50.703Z,40.00
2023-05-13T08:17:23.245Z,42.72
2023-05-13T08:19:56.607Z,37.30
2023-05-13T08:22:31.638Z,35.47
2023-05-13T08:25:04.338Z,36.70
2023-05-13T08:27:36.945Z,38.10
2023-05-13T08:30:10.023Z,36.20
2023-05-13T08:32:42.250Z,39.72
2023-05-13T08:35:14.517Z,38.65
2023-05-13T08:37:46.820Z,37.60
2023-05-13T08:40:19.365Z,34.30
2023-05-13T08:42:53.695Z,33.95
2023-05-13T08:45:29.757Z,35.15
2023-05-13T08:48:03.188Z,29.65
2023-05-13T08:50:35.503Z,30.52
2023-05-13T08:53:08.207Z,29.67
2023-05-13T08:55:43.339Z,26.45
2023-05-13T08:58:15.666Z,26.58
2023-05-13T09:00:50.214Z,28.98
2023-05-13T09:03:23.322Z,27.52
2023-05-13T09:06:03.969Z,27.33
2023-05-13T09:08:36.718Z,26.95
2023-05-13T09:11:09.172Z,23.75
2023-05-13T09:13:45.521Z,23.13
2023-05-13T09:16:18.075Z,26.45
2023-05-13T09:18:50.766Z,26.00
2023-05-13T09:21:32.021Z,26.35
2023-05-13T09:24:11.745Z,24.02
2023-05-13T09:26:44.645Z,23.65
2023-05-13T09:29:24.290Z,24.33
2023-05-13T09:32:01.320Z,27.30
2023-05-13T09:34:35.274Z,28.17
2023-05-13T09:37:09.050Z,29.98
2023-05-13T09:39:42.153Z,28.90
2023-05-13T09:42:18.945Z,28.55
2023-05-13T09:44:51.800Z,30.10
2023-05-13T09:47:24.891Z,26.95
2023-05-13T09:49:57.944Z,28.33
2023-05-13T09:52:32.084Z,27.30
2023-05-13T09:55:08.594Z,28.75
2023-05-13T09:57:41.277Z,30.55
2023-05-13T10:00:21.419Z,28.00
2023-05-13T10:03:02.517Z,26.80
2023-05-13T10:05:35.117Z,25.67
2023-05-13T10:08:12.209Z,24.73
2023-05-13T10:10:48.146Z,32.45
2023-05-13T10:13:23.941Z,22.17
2023-05-13T10:15:57.211Z,24.33
2023-05-13T10:18:29.916Z,25.65
2023-05-13T10:21:03.641Z,28.43
2023-05-13T10:23:38.866Z,25.67
2023-05-13T10:26:11.835Z,24.88
2023-05-13T10:28:44.152Z,25.23
2023-05-13T10:31:17.965Z,25.45
2023-05-13T10:33:53.549Z,25.77
2023-05-13T10:37:03.344Z,27.13
2023-05-13T10:39:57.397Z,27.13
2023-05-13T10:42:43.668Z,24.95
2023-05-13T10:45:18.286Z,26.00
2023-05-13T10:47:52.297Z,21.90
2023-05-13T10:50:25.821Z,25.30
2023-05-13T10:52:59.284Z,24.95
2023-05-13T10:55:39.882Z,20.10
2023-05-13T10:58:16.450Z,20.50
2023-05-13T11:00:49.877Z,22.00
2023-05-13T11:03:22.130Z,21.02
2023-05-13T11:06:20.567Z,21.25
2023-05-13T11:08:56.075Z,20.17
2023-05-13T11:11:35.803Z,18.60
2023-05-13T11:14:21.067Z,17.70
2023-05-13T11:17:02.550Z,14.90
2023-05-13T11:19:44.766Z,14.45
2023-05-13T11:22:21.770Z,17.85
2023-05-13T11:25:09.241Z,16.75
2023-05-13T11:27:43.019Z,14.20
2023-05-13T11:30:28.883Z,14.38
2023-05-13T11:33:03.098Z,13.10
2023-05-13T11:35:35.468Z,13.30
2023-05-13T11:38:07.836Z,14.05
2023-05-13T11:40:40.920Z,14.13
2023-05-13T11:43:21.146Z,13.77
2023-05-13T11:45:54.411Z,12.27
2023-05-13T11:48:27.428Z,13.02
2023-05-13T11:50:59.694Z,13.13
2023-05-13T11:53:31.923Z,9.95
2023-05-13T11:56:11.233Z,11.63
2023-05-13T11:58:43.501Z,13.43
2023-05-13T12:01:15.874Z,12.15
2023-05-13T12:03:48.493Z,9.57
2023-05-13T12:06:23.941Z,10.95
2023-05-13T12:08:56.932Z,11.02
2023-05-13T12:11:29.225Z,10.25
2023-05-13T12:14:02.013Z,9.15
2023-05-13T12:16:34.813Z,9.18
2023-05-13T12:19:07.526Z,9.97
2023-05-13T12:21:39.887Z,9.10
2023-05-13T12:24:21.894Z,9.65
2023-05-13T12:27:05.566Z,9.20
2023-05-13T12:29:42.719Z,8.85
2023-05-13T12:32:17.128Z,10.35
2023-05-13T12:34:52.191Z,8.57
2023-05-13T12:37:26.460Z,11.18
2023-05-13T12:40:13.328Z,9.20
2023-05-13T12:42:45.980Z,9.38
2023-05-13T12:45:18.420Z,10.30
2023-05-13T12:47:51.740Z,10.70
2023-05-13T12:50:24.938Z,10.60
2023-05-13T12:53:00.870Z,9.95
2023-05-13T12:55:33.306Z,8.35
2023-05-13T12:58:07.644Z,7.80
2023-05-13T13:00:40.552Z,6.68
2023-05-13T13:03:13.547Z,9.10
2023-05-13T13:05:47.075Z,9.17
2023-05-13T13:08:19.326Z,7.90
2023-05-13T13:10:52.128Z,8.30
2023-05-13T13:13:24.578Z,8.85
2023-05-13T13:15:57.115Z,8.75
2023-05-13T13:18:29.451Z,10.93
2023-05-13T13:21:02.040Z,9.98
2023-05-13T13:23:34.712Z,8.50
2023-05-13T13:26:07.516Z,8.57
2023-05-13T13:28:40.241Z,7.50
2023-05-13T13:31:13.043Z,10.35
2023-05-13T13:33:45.750Z,7.47
2023-05-13T13:36:20.408Z,8.30
2023-05-13T13:38:53.093Z,8.52
2023-05-13T13:41:25.911Z,6.78
2023-05-13T13:43:58.247Z,8.93
2023-05-13T13:46:30.557Z,7.43
2023-05-13T13:49:16.295Z,6.30
2023-05-13T13:51:56.654Z,7.75
2023-05-13T13:54:28.964Z,7.28
2023-05-13T13:57:01.213Z,6.25
2023-05-13T13:59:33.563Z,7.28
2023-05-13T14:02:06.101Z,7.57
2023-05-13T14:04:38.352Z,6.63
2023-05-13T14:07:14.468Z,5.78
2023-05-13T14:09:46.917Z,6.95
2023-05-13T14:12:19.623Z,5.43
2023-05-13T14:14:51.801Z,6.43
2023-05-13T14:17:24.588Z,6.30
2023-05-13T14:19:57.263Z,5.90
2023-05-13T14:22:32.426Z,6.22
2023-05-13T14:25:05.093Z,6.20
2023-05-13T14:27:37.478Z,6.23
2023-05-13T14:30:13.139Z,6.10
2023-05-13T14:32:45.553Z,6.85
2023-05-13T14:35:19.072Z,8.77
2023-05-13T14:37:51.714Z,7.22
2023-05-13T14:40:24.418Z,6.30
2023-05-13T14:42:56.775Z,7.43
2023-05-13T14:45:29.253Z,6.03
2023-05-13T14:48:01.717Z,6.40
2023-05-13T14:50:36.914Z,7.80
2023-05-13T14:53:10.484Z,7.32
2023-05-13T14:55:43.453Z,6.65
2023-05-13T14:58:16.799Z,5.45
2023-05-13T15:00:49.792Z,5.53
2023-05-13T15:03:22.478Z,4.38
2023-05-13T15:05:54.973Z,6.90
2023-05-13T15:08:27.774Z,6.15
2023-05-13T15:11:01.185Z,4.85
2023-05-13T15:13:35.638Z,4.85
2023-05-13T15:16:08.140Z,4.78
2023-05-13T15:18:42.813Z,5.03
2023-05-13T15:21:15.771Z,6.45
2023-05-13T15:23:50.818Z,4.72
2023-05-13T15:26:23.067Z,5.88
2023-05-13T15:28:55.515Z,6.50
2023-05-13T15:31:28.202Z,4.75
2023-05-13T15:34:02.781Z,4.50
2023-05-13T15:36:35.846Z,4.80
2023-05-13T15:39:11.303Z,4.28
2023-05-13T15:41:46.738Z,5.53
2023-05-13T15:44:22.541Z,4.13
2023-05-13T15:46:55.098Z,4.15
2023-05-13T15:49:28.072Z,6.53
2023-05-13T15:52:00.838Z,3.92
2023-05-13T15:54:34.637Z,5.18
2023-05-13T15:57:07.639Z,5.35
2023-05-13T15:59:42.254Z,4.00
2023-05-13T16:02:14.825Z,5.65
2023-05-13T16:04:47.407Z,5.83
2023-05-13T16:07:20.243Z,4.78
2023-05-13T16:09:53.145Z,4.57
2023-05-13T16:12:25.396Z,4.80
2023-05-13T16:14:57.582Z,4.85
2023-05-13T16:17:30.565Z,4.45
2023-05-13T16:20:03.323Z,4.45
2023-05-13T16:22:38.402Z,4.45
2023-05-13T16:25:11.985Z,3.97
2023-05-13T16:30:16.949Z,6.80
2023-05-13T16:32:53.504Z,7.68
2023-05-13T16:35:31.774Z,5.25
2023-05-13T16:38:04.341Z,5.93
2023-05-13T16:40:38.657Z,5.03
2023-05-13T16:43:12.033Z,5.50
2023-05-13T16:45:44.644Z,5.25
2023-05-13T16:48:17.368Z,7.30
2023-05-13T16:50:49.657Z,6.47
2023-05-13T16:53:22.690Z,5.15
2023-05-13T16:55:54.986Z,4.82
2023-05-13T16:58:27.167Z,4.63
2023-05-13T17:00:59.698Z,4.28
2023-05-13T17:03:31.947Z,3.90
2023-05-13T17:06:07.870Z,3.80
2023-05-13T17:11:17.044Z,4.07
2023-05-13T17:13:49.736Z,6.60
2023-05-13T17:16:22.005Z,7.43
2023-05-13T17:18:59.100Z,6.63
2023-05-13T17:21:34.279Z,5.50
2023-05-13T17:24:07.411Z,3.92
2023-05-13T17:26:39.849Z,3.45
2023-05-13T17:29:15.313Z,4.30
2023-05-13T17:31:49.979Z,5.28
2023-05-13T17:34:23.376Z,5.68
2023-05-13T17:37:03.045Z,4.70
2023-05-13T17:39:35.801Z,5.97
2023-05-13T17:42:10.842Z,4.68
2023-05-13T17:44:43.089Z,11.68
2023-05-13T17:47:15.775Z,3.53
2023-05-13T17:49:48.363Z,4.25
2023-05-13T17:52:21.049Z,3.78
2023-05-13T17:54:53.413Z,3.85
2023-05-13T17:57:26.326Z,5.07
2023-05-13T17:59:59.174Z,3.80
2023-05-13T18:02:31.794Z,5.22
2023-05-13T18:05:04.108Z,3.67
2023-05-13T18:07:36.619Z,6.93
2023-05-13T18:10:09.588Z,4.32
2023-05-13T18:12:45.282Z,4.35
2023-05-13T18:15:17.615Z,7.38
2023-05-13T18:17:50.437Z,8.38
2023-05-13T18:20:23.244Z,15.07
2023-05-13T18:22:55.708Z,18.73
2023-05-13T18:25:28.186Z,26.13
2023-05-13T18:28:01.269Z,25.10
2023-05-13T18:30:33.476Z,9.65
2023-05-13T18:33:06.561Z,11.27
2023-05-13T18:35:40.391Z,9.15
2023-05-13T18:38:12.931Z,5.78
2023-05-13T18:40:45.539Z,5.82
2023-05-13T18:43:18.050Z,3.80
2023-05-13T18:45:53.555Z,4.03
2023-05-13T18:48:28.838Z,4.93
2023-05-13T18:51:01.968Z,5.07
2023-05-13T18:53:34.262Z,3.53
2023-05-13T18:56:07.048Z,7.80
2023-05-13T18:58:42.503Z,4.78
2023-05-13T19:01:15.875Z,4.15
2023-05-13T19:06:20.868Z,2.20
2023-05-13T19:08:53.613Z,2.63
2023-05-13T19:11:26.438Z,2.33
2023-05-13T19:13:58.849Z,2.65
2023-05-13T19:16:31.444Z,2.00
2023-05-13T19:19:04.254Z,1.50
2023-05-13T19:21:39.134Z,1.98
2023-05-13T19:24:11.561Z,1.70
2023-05-13T19:26:43.991Z,2.55
2023-05-13T19:29:16.479Z,2.35
2023-05-13T19:31:48.773Z,1.80
2023-05-13T19:34:21.399Z,2.42
2023-05-13T19:36:53.589Z,1.95
2023-05-13T19:39:25.923Z,1.92
2023-05-13T19:42:00.422Z,2.13
2023-05-13T19:44:34.200Z,2.17
2023-05-13T19:47:09.447Z,6.40
2023-05-13T19:49:41.751Z,6.80
2023-05-13T19:52:13.987Z,2.65
2023-05-13T19:54:46.300Z,6.07
2023-05-13T19:57:18.574Z,3.08
2023-05-13T19:59:51.921Z,4.07
2023-05-13T20:02:24.111Z,4.13
2023-05-13T20:04:56.660Z,3.78
2023-05-13T20:07:28.902Z,4.60
2023-05-13T20:10:01.822Z,3.67
2023-05-13T20:12:34.650Z,4.45
2023-05-13T20:15:07.336Z,4.88
2023-05-13T20:17:39.815Z,10.03
2023-05-13T20:20:12.724Z,4.13
2023-05-13T20:22:44.959Z,9.80
2023-05-13T20:25:20.505Z,5.25
2023-05-13T20:27:52.773Z,6.32
2023-05-13T20:30:25.662Z,5.85
2023-05-13T20:32:58.836Z,5.47
2023-05-13T20:35:31.968Z,5.82
2023-05-13T20:38:04.180Z,8.02
2023-05-13T20:40:36.348Z,6.10
2023-05-13T20:43:08.586Z,7.00
2023-05-13T20:45:41.300Z,5.53
2023-05-13T20:48:13.916Z,7.53
2023-05-13T20:50:47.253Z,6.32
2023-05-13T20:53:19.585Z,6.97
2023-05-13T20:55:52.187Z,5.70
2023-05-13T20:58:24.604Z,5.75
2023-05-13T21:00:57.197Z,5.78
2023-05-13T21:03:29.701Z,10.30
2023-05-13T21:06:02.293Z,9.35
2023-05-13T21:08:37.184Z,12.18
2023-05-13T21:11:09.520Z,9.65
2023-05-13T21:13:42.248Z,11.23
2023-05-13T21:16:14.793Z,9.85
2023-05-13T21:18:47.989Z,12.55
2023-05-13T21:21:20.269Z,13.70
2023-05-13T21:23:52.582Z,15.70
2023-05-13T21:26:26.011Z,11.82
2023-05-13T21:28:58.497Z,18.00
2023-05-13T21:31:30.820Z,12.13
2023-05-13T21:34:03.040Z,10.85
2023-05-13T21:36:39.070Z,10.20
2023-05-13T21:39:11.325Z,11.45
2023-05-13T21:41:44.595Z,9.93
2023-05-13T21:44:17.328Z,9.02
2023-05-13T21:46:49.511Z,10.55
2023-05-13T21:49:21.854Z,11.93
2023-05-13T21:51:54.133Z,10.45
2023-05-13T21:54:26.658Z,13.73
2023-05-13T21:56:58.794Z,10.00
2023-05-13T21:59:31.156Z,10.57
2023-05-13T22:02:03.391Z,8.73
2023-05-13T22:04:35.993Z,11.48
2023-05-13T22:07:08.337Z,10.90
2023-05-13T22:09:40.470Z,9.50
2023-05-13T22:12:12.633Z,9.85
2023-05-13T22:14:44.967Z,10.07
2023-05-13T22:17:17.412Z,10.00
2023-05-13T22:19:49.678Z,8.85
2023-05-13T22:22:21.910Z,8.80
2023-05-13T22:24:54.355Z,10.95
2023-05-13T22:27:26.535Z,14.32
2023-05-13T22:29:58.831Z,11.35
2023-05-13T22:32:31.754Z,11.98
2023-05-13T22:35:04.996Z,11.50
2023-05-13T22:37:38.216Z,20.25
2023-05-13T22:40:13.939Z,19.88
2023-05-13T22:42:46.914Z,20.77
2023-05-13T22:45:19.104Z,22.88
2023-05-13T22:47:51.754Z,26.33
2023-05-13T22:50:24.992Z,30.20
2023-05-13T22:52:57.291Z,24.88
2023-05-13T22:55:29.706Z,25.85
2023-05-13T22:58:02.596Z,28.02
2023-05-13T23:00:34.749Z,29.03
2023-05-13T23:03:07.127Z,27.38
2023-05-13T23:05:39.280Z,29.75
2023-05-13T23:08:11.451Z,27.00
2023-05-13T23:10:43.599Z,26.17
2023-05-13T23:13:15.839Z,32.30
2023-05-13T23:15:49.093Z,31.23
2023-05-13T23:18:21.227Z,31.70
2023-05-13T23:20:55.827Z,34.00
2023-05-13T23:23:29.071Z,34.35
2023-05-13T23:26:01.194Z,34.92
2023-05-13T23:28:33.866Z,42.17
2023-05-13T23:31:06.354Z,35.63
2023-05-13T23:33:38.648Z,36.50
2023-05-13T23:36:10.822Z,37.33
2023-05-13T23:38:42.927Z,37.78
2023-05-13T23:41:15.191Z,36.85
2023-05-13T23:43:47.372Z,35.15
2023-05-13T23:46:19.556Z,45.30
2023-05-13T23:48:51.864Z,37.90
2023-05-13T23:51:23.982Z,34.92
2023-05-13T23:53:56.339Z,37.05
2023-05-13T23:56:28.535Z,44.13
2023-05-13T23:59:01.415Z,41.03
